Terminal Aerodrome Forecast
Issued by NWS

Home | Current Version | Previous Version | Text Only | Print | Product List | Glossary On
Versions: 1 2 3 4 5 6 7 8 9 10 11 12 13
000
FTUS41 KCAR 171720
TAFPQI
TAF
KPQI 171720Z 1718/1818 31010KT P6SM FEW250
     FM172200 30006KT P6SM SKC
     FM181500 18004KT P6SM BKN090=

USA.gov is the U.S. government's official web portal to all federal, state and local government web resources and services.